Cashton, WI

3:26 AM CDT on July 23, 2014 (GMT -0500)
Viroqua (KY51) Elev 1293 ft | 43.58 °N, 90.90 °W | Change Station

Current weather conditions updated 11 minutes ago

Partly Cloudy
Partly Cloudy
61 °F
Feels Like 61 °F
N
4
Wind Variable Wind from NE

Today is forecast to be Much Cooler than yesterday.

Today
High -- | Low -- °F
--% Chance of Precip.
Yesterday
High -- | Low -- °F
Precip. -- in
5:42 AM 8:35 PM
Waning Crescent, 12% visible
Pressure 30.17 in
Visibility 10.0 miles
Clouds Clear
Dew Point 58 °F
Humidity 88%
Rainfall 0.00 in
Snow Depth Not available.
UV 0 out of 12
Pollen 2.90 out of 12
Air Quality Not available.
Flu Activity Not available.
METAR KY51 230815Z AUTO 04003KT 10SM CLR 16/14 A3017 RMK AO1 T01620143

More Conditions Fewer Conditions

Pressure 30.17 in
Visibility 10.0 miles
Clouds Clear
Dew Point 58 °F
Humidity 88%
Rainfall 0.00 in
Snow Depth Not available.
UV 0 out of 12
Pollen 2.90 out of 12
Air Quality Not available.
Flu Activity Not available.
METAR KY51 230815Z AUTO 04003KT 10SM CLR 16/14 A3017 RMK AO1 T01620143

More Conditions Fewer Conditions

10-Day Weather Forecast

Almanac

Astronomy

Jul. 23, 2014 Rise Set
Actual Time 5:42 AM CDT 8:35 PM CDT
Civil Twilight 5:08 AM CDT 9:09 PM CDT
Nautical Twilight 4:25 AM CDT 9:52 PM CDT
Astronomical Twilight 3:35 AM CDT 10:42 PM CDT
Moon 3:02 AM CDT 6:04 PM CDT
Length of Visible Light 16h 00m
Length of Day
14h 53m
Tomorrow will be 1m 58s shorter.
Waning Crescent, 12% of the Moon is Illuminated
Today
Waning Crescent
Jul 26
New
Aug 3
First Quarter
Aug 10
Full
Aug 17
Last Quarter

Today's Extremes

State Highs State Lows

Community

WunderPhotos

Upload Photos

1,736,529 photos uploaded!

Nearby

Snow Depth

Station Depth Elevation
No new snow has been reported.

Earthquake Activity

City Distance Mag. Time & Date
No recent earthquake activity has been reported nearby.
Minimum magnitude displayed is 2.5.

Coastal Water Temperatures

Place Temperature
No Stations Reporting

Nearby Weather Stations

Station Location Temp. Dew Point Humidity Wind Precip. Elev Updated Type
Faith Farms Viroqua, Viroqua, WI 63.0 °F 59 °F 86% ESE  at  2.0 mph 0.00 in / hr 1217 ft 3:25 AM CDT Normal
Oehler's Mill, La Crosse, WI 62.8 °F 57 °F 82% West  at  0.0 mph 0.00 in / hr 669 ft 3:26 AM CDT Rapid Fire
Kendall, Wi., Kendall, WI 60.1 °F 55 °F 84% NW  at  1.2 mph 0.00 in / hr 1021 ft 3:26 AM CDT Rapid Fire
La Crosse - Downtown, La Crosse, WI 68.7 °F 61 °F 75% NNW  at  0.0 mph 0.00 in / hr 682 ft 3:21 AM CDT Normal
Gillette at George, La Crosse, WI 69.9 °F 58 °F 67% SW  at  0.0 mph 0.00 in / hr 659 ft 3:26 AM CDT Rapid Fire

Show More Stations Show Fewer Stations